createdAt,value
2023-04-14T00:01:18.989Z,49.49
2023-04-14T00:03:48.397Z,49.49
2023-04-14T00:06:17.681Z,49.62
2023-04-14T00:08:48.916Z,49.39
2023-04-14T00:11:18.681Z,50.09
2023-04-14T00:13:47.901Z,49.86
2023-04-14T00:16:22.347Z,50.52
2023-04-14T00:18:52.613Z,50.51
2023-04-14T00:21:27.913Z,50.70
2023-04-14T00:23:59.152Z,50.41
2023-04-14T00:26:39.442Z,50.46
2023-04-14T00:29:08.514Z,51.18
2023-04-14T00:31:37.872Z,50.64
2023-04-14T00:34:12.306Z,50.82
2023-04-14T00:36:41.547Z,51.07
2023-04-14T00:39:12.839Z,50.99
2023-04-14T00:41:43.011Z,51.53
2023-04-14T00:44:12.190Z,51.62
2023-04-14T00:46:47.775Z,51.71
2023-04-14T00:49:18.003Z,51.63
2023-04-14T00:51:48.207Z,51.58
2023-04-14T00:54:20.878Z,52.11
2023-04-14T00:56:52.228Z,51.92
2023-04-14T00:59:21.949Z,51.88
2023-04-14T01:01:51.407Z,52.07
2023-04-14T01:06:58.210Z,52.08
2023-04-14T01:09:29.983Z,51.88
2023-04-14T01:12:08.231Z,52.36
2023-04-14T01:14:44.225Z,52.47
2023-04-14T01:17:21.712Z,52.27
2023-04-14T01:20:09.214Z,52.30
2023-04-14T01:22:45.837Z,52.51
2023-04-14T01:25:58.692Z,53.03
2023-04-14T01:28:51.270Z,52.38
2023-04-14T01:31:31.267Z,52.35
2023-04-14T01:34:05.689Z,52.95
2023-04-14T01:36:41.904Z,52.70
2023-04-14T01:39:14.798Z,52.83
2023-04-14T01:41:49.801Z,52.66
2023-04-14T01:44:22.021Z,52.24
2023-04-14T01:46:54.958Z,52.39
2023-04-14T01:49:30.738Z,52.74
2023-04-14T01:52:00.284Z,52.79
2023-04-14T01:54:33.879Z,52.69
2023-04-14T01:57:04.934Z,52.79
2023-04-14T01:59:41.395Z,52.67
2023-04-14T02:02:17.917Z,52.70
2023-04-14T02:04:48.796Z,53.32
2023-04-14T02:07:27.341Z,53.70
2023-04-14T02:10:00.719Z,53.33
2023-04-14T02:12:33.587Z,52.93
2023-04-14T02:15:04.085Z,53.43
2023-04-14T02:17:36.123Z,53.92
2023-04-14T02:20:13.092Z,54.04
2023-04-14T02:22:43.846Z,53.79
2023-04-14T02:25:19.606Z,54.05
2023-04-14T02:27:55.953Z,54.63
2023-04-14T02:30:34.353Z,54.56
2023-04-14T02:33:09.901Z,54.83
2023-04-14T02:35:44.663Z,54.78
2023-04-14T02:38:20.374Z,54.60
2023-04-14T02:40:50.652Z,54.56
2023-04-14T02:43:22.589Z,54.48
2023-04-14T02:45:55.532Z,54.44
2023-04-14T02:48:30.180Z,54.98
2023-04-14T02:51:02.734Z,54.59
2023-04-14T02:53:34.684Z,54.83
2023-04-14T02:56:28.686Z,54.79
2023-04-14T02:59:00.715Z,55.10
2023-04-14T03:01:32.824Z,54.71
2023-04-14T03:04:04.510Z,54.45
2023-04-14T03:06:38.414Z,54.46
2023-04-14T03:09:08.960Z,54.78
2023-04-14T03:11:40.757Z,54.34
2023-04-14T03:14:11.043Z,54.45
2023-04-14T03:16:42.874Z,53.93
2023-04-14T03:19:15.949Z,54.07
2023-04-14T03:21:49.376Z,54.21
2023-04-14T03:24:24.155Z,53.70
2023-04-14T03:27:03.703Z,53.86
2023-04-14T03:29:38.089Z,53.94
2023-04-14T03:32:08.868Z,53.88
2023-04-14T03:34:46.155Z,53.79
2023-04-14T03:37:26.327Z,53.88
2023-04-14T03:40:05.670Z,53.59
2023-04-14T03:42:42.808Z,53.86
2023-04-14T03:45:13.581Z,53.74
2023-04-14T03:47:45.931Z,54.20
2023-04-14T03:50:21.532Z,53.76
2023-04-14T03:52:56.118Z,54.31
2023-04-14T03:55:27.423Z,54.27
2023-04-14T03:58:03.985Z,54.46
2023-04-14T04:00:35.236Z,54.17
2023-04-14T04:03:10.733Z,54.18
2023-04-14T04:05:43.394Z,54.26
2023-04-14T04:08:21.309Z,53.55
2023-04-14T04:10:58.836Z,53.85
2023-04-14T04:13:29.960Z,53.35
2023-04-14T04:16:00.992Z,52.86
2023-04-14T04:18:33.612Z,52.40
2023-04-14T04:21:19.473Z,52.26
2023-04-14T04:23:55.713Z,51.98
2023-04-14T04:26:27.206Z,52.33
2023-04-14T04:29:08.805Z,51.66
2023-04-14T04:31:38.793Z,51.71
2023-04-14T04:34:09.755Z,51.32
2023-04-14T04:36:43.343Z,51.10
2023-04-14T04:39:12.873Z,51.18
2023-04-14T04:41:45.434Z,51.16
2023-04-14T04:44:14.975Z,50.38
2023-04-14T04:46:54.017Z,50.60
2023-04-14T04:49:30.480Z,50.56
2023-04-14T04:52:11.860Z,50.01
2023-04-14T04:54:41.224Z,50.16
2023-04-14T04:57:12.007Z,49.86
2023-04-14T05:02:21.703Z,49.69
2023-04-14T05:04:51.116Z,49.18
2023-04-14T05:07:22.621Z,49.36
2023-04-14T05:09:51.804Z,48.98
2023-04-14T05:12:20.930Z,48.37
2023-04-14T05:14:50.389Z,48.25
2023-04-14T05:17:19.953Z,48.17
2023-04-14T05:19:49.216Z,48.09
2023-04-14T05:22:18.486Z,47.99
2023-04-14T05:24:53.468Z,47.75
2023-04-14T05:27:23.479Z,47.91
2023-04-14T05:29:53.705Z,47.27
2023-04-14T05:32:33.960Z,47.39
2023-04-14T05:35:04.991Z,47.11
2023-04-14T05:37:39.601Z,46.63
2023-04-14T05:40:12.320Z,46.92
2023-04-14T05:42:42.437Z,46.39
2023-04-14T05:45:12.658Z,46.52
2023-04-14T05:47:42.110Z,46.26
2023-04-14T05:50:17.636Z,45.70
2023-04-14T05:52:52.129Z,45.70
2023-04-14T05:55:23.891Z,45.05
2023-04-14T05:57:53.259Z,44.92
2023-04-14T06:00:24.821Z,44.93
2023-04-14T06:02:54.927Z,45.17
2023-04-14T06:05:30.274Z,44.63
2023-04-14T06:08:00.082Z,44.63
2023-04-14T06:10:40.154Z,44.44
2023-04-14T06:13:11.133Z,44.88
2023-04-14T06:15:48.283Z,43.89
2023-04-14T06:18:17.705Z,43.34
2023-04-14T06:20:47.459Z,42.84
2023-04-14T06:23:16.776Z,43.04
2023-04-14T06:25:49.046Z,42.08
2023-04-14T06:28:18.466Z,42.10
2023-04-14T06:30:47.822Z,42.11
2023-04-14T06:33:17.500Z,42.57
2023-04-14T06:35:46.680Z,42.58
2023-04-14T06:38:22.288Z,41.57
2023-04-14T06:40:53.511Z,41.67
2023-04-14T06:43:22.928Z,41.61
2023-04-14T06:45:52.637Z,41.98
2023-04-14T06:48:27.141Z,41.41
2023-04-14T06:50:57.417Z,41.38
2023-04-14T06:53:26.688Z,41.09
2023-04-14T06:56:01.576Z,41.27
2023-04-14T06:58:36.347Z,41.10
2023-04-14T07:01:06.308Z,40.95
2023-04-14T07:03:35.795Z,40.47
2023-04-14T07:06:06.517Z,40.35
2023-04-14T07:08:36.535Z,40.32
2023-04-14T07:11:10.022Z,40.38
2023-04-14T07:13:41.166Z,40.12
2023-04-14T07:16:15.692Z,39.93
2023-04-14T07:18:44.985Z,39.55
2023-04-14T07:21:14.404Z,38.90
2023-04-14T07:23:44.465Z,39.38
2023-04-14T07:26:15.785Z,38.53
2023-04-14T07:31:27.515Z,38.53
2023-04-14T07:34:02.499Z,38.87
2023-04-14T07:36:33.709Z,38.65
2023-04-14T07:39:03.677Z,38.29
2023-04-14T07:41:34.970Z,38.37
2023-04-14T07:44:04.309Z,38.10
2023-04-14T07:46:33.593Z,38.22
2023-04-14T07:49:09.498Z,37.99
2023-04-14T07:51:38.721Z,37.65
2023-04-14T07:54:08.113Z,37.84
2023-04-14T07:56:39.376Z,37.81
2023-04-14T07:59:13.755Z,37.72
2023-04-14T08:01:48.224Z,37.98
2023-04-14T08:04:24.048Z,37.47
2023-04-14T08:06:53.645Z,36.88
2023-04-14T08:09:23.029Z,37.12
2023-04-14T08:12:00.006Z,36.80
2023-04-14T08:14:29.806Z,36.75
2023-04-14T08:16:59.234Z,36.59
2023-04-14T08:19:30.101Z,36.51
2023-04-14T08:22:04.565Z,36.88
2023-04-14T08:24:39.142Z,36.80
2023-04-14T08:29:45.680Z,37.01
2023-04-14T08:32:15.322Z,36.01
2023-04-14T08:35:41.019Z,36.20
2023-04-14T08:37:34.491Z,35.96
2023-04-14T08:40:09.517Z,36.12
2023-04-14T08:42:40.974Z,35.81
2023-04-14T08:45:11.064Z,35.57
2023-04-14T08:47:47.908Z,35.43
2023-04-14T08:50:20.608Z,35.36
2023-04-14T08:52:54.325Z,36.10
2023-04-14T08:55:24.732Z,35.58
2023-04-14T08:57:56.697Z,35.50
2023-04-14T09:00:26.370Z,35.91
2023-04-14T09:05:33.508Z,35.78
2023-04-14T09:08:08.128Z,35.04
2023-04-14T09:10:37.804Z,35.16
2023-04-14T09:13:11.264Z,35.44
2023-04-14T09:15:40.752Z,35.37
2023-04-14T09:18:11.193Z,35.53
2023-04-14T09:20:41.698Z,35.06
2023-04-14T09:23:11.962Z,34.64
2023-04-14T09:25:47.786Z,35.18
2023-04-14T09:28:19.789Z,34.87
2023-04-14T09:30:57.306Z,34.54
2023-04-14T09:33:27.264Z,34.02
2023-04-14T09:36:20.485Z,34.85
2023-04-14T09:38:51.201Z,34.79
2023-04-14T09:41:26.030Z,34.43
2023-04-14T09:43:57.892Z,34.44
2023-04-14T09:46:32.651Z,33.68
2023-04-14T09:49:03.079Z,33.55
2023-04-14T09:51:37.961Z,34.18
2023-04-14T09:54:07.374Z,33.37
2023-04-14T09:56:37.018Z,34.02
2023-04-14T09:59:13.130Z,33.96
2023-04-14T10:01:47.303Z,34.04
2023-04-14T10:04:26.387Z,33.85
2023-04-14T10:06:58.186Z,33.59
2023-04-14T10:09:37.442Z,33.25
2023-04-14T10:12:11.753Z,32.79
2023-04-14T10:14:48.201Z,32.79
2023-04-14T10:17:19.420Z,33.18
2023-04-14T10:19:53.117Z,31.84
2023-04-14T10:22:27.301Z,31.57
2023-04-14T10:25:02.341Z,31.47
2023-04-14T10:27:34.904Z,31.25
2023-04-14T10:30:08.612Z,30.59
2023-04-14T10:32:40.167Z,31.19
2023-04-14T10:35:18.296Z,31.56
2023-04-14T10:37:53.464Z,31.72
2023-04-14T10:40:23.602Z,31.24
2023-04-14T10:43:16.513Z,31.31
2023-04-14T10:45:59.073Z,30.18
2023-04-14T10:48:29.370Z,29.43
2023-04-14T10:53:55.098Z,29.49
2023-04-14T10:56:40.309Z,29.55
2023-04-14T10:59:30.441Z,29.52
2023-04-14T11:02:02.710Z,29.98
2023-04-14T11:04:32.324Z,29.69
2023-04-14T11:07:16.168Z,29.76
2023-04-14T11:09:46.620Z,29.46
2023-04-14T11:12:32.711Z,29.24
2023-04-14T11:15:09.283Z,28.77
2023-04-14T11:17:42.865Z,28.29
2023-04-14T11:20:23.150Z,28.09
2023-04-14T11:25:33.768Z,28.47
2023-04-14T11:28:09.584Z,28.26
2023-04-14T11:30:39.189Z,27.92
2023-04-14T11:33:10.837Z,28.16
2023-04-14T11:38:29.676Z,27.79
2023-04-14T11:41:29.253Z,28.21
2023-04-14T11:43:58.809Z,27.71
2023-04-14T11:47:02.154Z,27.22
2023-04-14T11:49:38.827Z,26.38
2023-04-14T11:52:14.489Z,26.32
2023-04-14T11:54:44.002Z,26.42
2023-04-14T11:57:14.369Z,26.49
2023-04-14T11:59:44.929Z,26.40
2023-04-14T12:02:19.073Z,26.72
2023-04-14T12:07:29.834Z,26.82
2023-04-14T12:10:18.853Z,26.67
2023-04-14T12:12:48.243Z,26.02
2023-04-14T12:18:02.274Z,25.81
2023-04-14T12:20:49.696Z,25.64
2023-04-14T12:23:19.544Z,25.43
2023-04-14T12:25:56.661Z,25.49
2023-04-14T12:28:34.431Z,25.35
2023-04-14T12:31:10.266Z,25.37
2023-04-14T12:33:40.460Z,24.88
2023-04-14T12:36:18.342Z,24.74
2023-04-14T12:38:54.339Z,25.05
2023-04-14T12:41:24.713Z,24.98
2023-04-14T12:43:54.226Z,24.86
2023-04-14T12:52:10.373Z,25.09
2023-04-14T12:55:07.546Z,24.51
2023-04-14T12:57:37.354Z,24.11
2023-04-14T13:00:08.649Z,23.68
2023-04-14T13:02:39.683Z,23.87
2023-04-14T13:05:09.784Z,24.48
2023-04-14T13:07:41.477Z,24.27
2023-04-14T13:10:12.125Z,24.17
2023-04-14T13:12:47.019Z,24.18
2023-04-14T13:16:12.742Z,23.89
2023-04-14T13:18:18.919Z,24.18
2023-04-14T13:20:55.232Z,23.89
2023-04-14T13:23:26.893Z,23.72
2023-04-14T13:25:56.350Z,23.44
2023-04-14T13:28:26.183Z,23.32
2023-04-14T13:30:57.383Z,23.34
2023-04-14T13:33:27.864Z,23.28
2023-04-14T13:36:10.094Z,23.00
2023-04-14T13:38:41.441Z,23.30
2023-04-14T13:41:10.950Z,23.44
2023-04-14T13:43:45.264Z,23.61
2023-04-14T13:46:19.698Z,23.58
2023-04-14T13:48:49.426Z,22.89
2023-04-14T13:51:32.932Z,22.98
2023-04-14T13:54:09.809Z,23.06
2023-04-14T13:56:39.210Z,22.95
2023-04-14T14:02:18.729Z,22.86
2023-04-14T14:04:48.302Z,23.36
2023-04-14T14:07:30.587Z,23.00
2023-04-14T14:10:25.559Z,23.80
2023-04-14T14:13:09.932Z,23.50
2023-04-14T14:15:39.334Z,24.19
2023-04-14T14:18:08.859Z,23.08
2023-04-14T14:21:11.798Z,22.69
2023-04-14T14:23:41.305Z,22.91
2023-04-14T14:26:28.517Z,22.61
2023-04-14T14:28:57.839Z,22.73
2023-04-14T14:31:42.037Z,22.99
2023-04-14T14:34:22.813Z,23.58
2023-04-14T14:36:52.113Z,22.81
2023-04-14T14:39:21.320Z,22.67
2023-04-14T14:41:58.080Z,22.96
2023-04-14T14:44:27.636Z,22.51
2023-04-14T14:46:56.979Z,22.58
2023-04-14T14:49:26.848Z,22.80
2023-04-14T14:51:56.140Z,22.57
2023-04-14T14:54:25.816Z,22.31
2023-04-14T14:56:57.136Z,21.93
2023-04-14T14:59:26.830Z,22.15
2023-04-14T15:01:56.147Z,21.68
2023-04-14T15:04:30.596Z,22.25
2023-04-14T15:07:00.096Z,22.18
2023-04-14T15:09:29.417Z,21.77
2023-04-14T15:12:19.315Z,21.64
2023-04-14T15:14:48.863Z,21.91
2023-04-14T15:17:18.301Z,21.86
2023-04-14T15:19:52.773Z,22.13
2023-04-14T15:22:23.647Z,22.43
2023-04-14T15:24:58.441Z,22.16
2023-04-14T15:27:35.707Z,21.99
2023-04-14T15:30:05.551Z,22.22
2023-04-14T15:32:34.912Z,22.17
2023-04-14T15:35:04.688Z,21.77
2023-04-14T15:37:39.230Z,22.27
2023-04-14T15:40:24.849Z,22.39
2023-04-14T15:42:56.153Z,22.46
2023-04-14T15:45:25.775Z,22.86
2023-04-14T15:48:19.110Z,22.63
2023-04-14T15:50:48.509Z,22.45
2023-04-14T15:53:17.924Z,22.64
2023-04-14T15:55:56.284Z,22.04
2023-04-14T15:58:32.031Z,22.40
2023-04-14T16:01:01.478Z,22.61
2023-04-14T16:03:45.890Z,23.44
2023-04-14T16:06:15.422Z,22.96
2023-04-14T16:08:59.919Z,22.82
2023-04-14T16:11:30.029Z,22.62
2023-04-14T16:14:01.528Z,22.38
2023-04-14T16:16:30.886Z,22.75
2023-04-14T16:19:00.506Z,23.38
2023-04-14T16:21:49.335Z,23.41
2023-04-14T16:24:32.271Z,23.80
2023-04-14T16:27:14.551Z,23.09
2023-04-14T16:29:46.650Z,23.42
2023-04-14T16:32:17.206Z,23.13
2023-04-14T16:35:11.524Z,23.99
2023-04-14T16:40:19.237Z,23.67
2023-04-14T16:42:48.927Z,23.79
2023-04-14T16:45:39.109Z,23.69
2023-04-14T16:48:08.800Z,23.97
2023-04-14T16:50:53.771Z,24.47
2023-04-14T16:53:29.453Z,24.10
2023-04-14T16:56:05.186Z,24.31
2023-04-14T16:58:35.102Z,24.18
2023-04-14T17:01:08.437Z,24.09
2023-04-14T17:03:43.154Z,24.58
2023-04-14T17:06:12.829Z,24.05
2023-04-14T17:08:42.235Z,24.37
2023-04-14T17:11:11.839Z,24.31
2023-04-14T17:13:43.352Z,24.62
2023-04-14T17:16:14.729Z,24.74
2023-04-14T17:18:51.476Z,25.09
2023-04-14T17:21:21.182Z,24.52
2023-04-14T17:23:50.653Z,25.03
2023-04-14T17:26:20.699Z,24.82
2023-04-14T17:28:49.948Z,25.46
2023-04-14T17:31:21.340Z,25.10
2023-04-14T17:33:51.111Z,25.34
2023-04-14T17:36:20.522Z,25.39
2023-04-14T17:41:52.960Z,25.55
2023-04-14T17:44:32.250Z,25.17
2023-04-14T17:47:12.494Z,25.31
2023-04-14T17:49:49.030Z,25.59
2023-04-14T17:52:21.366Z,25.18
2023-04-14T17:54:52.089Z,25.13
2023-04-14T17:57:21.575Z,25.15
2023-04-14T18:02:43.623Z,25.27
2023-04-14T18:05:13.578Z,25.19
2023-04-14T18:07:44.327Z,25.58
2023-04-14T18:10:13.707Z,25.39
2023-04-14T18:12:42.949Z,25.46
2023-04-14T18:15:15.159Z,25.10
2023-04-14T18:17:53.210Z,25.20
2023-04-14T18:20:25.128Z,24.94
2023-04-14T18:23:08.211Z,24.94
2023-04-14T18:28:15.520Z,24.81
2023-04-14T18:30:49.618Z,25.57
2023-04-14T18:33:21.053Z,25.42
2023-04-14T18:35:52.563Z,25.38
2023-04-14T18:38:22.945Z,25.26
2023-04-14T18:41:07.988Z,25.13
2023-04-14T18:43:38.137Z,25.47
2023-04-14T18:46:27.267Z,25.27
2023-04-14T18:49:04.116Z,25.44
2023-04-14T18:51:41.578Z,25.73
2023-04-14T18:54:12.783Z,25.80
2023-04-14T18:59:33.606Z,25.95
2023-04-14T19:02:21.650Z,26.10
2023-04-14T19:04:53.237Z,26.08
2023-04-14T19:07:22.810Z,25.60
2023-04-14T19:09:52.609Z,25.62
2023-04-14T19:12:28.064Z,26.08
2023-04-14T19:14:58.557Z,26.31
2023-04-14T19:17:47.772Z,26.29
2023-04-14T19:20:19.213Z,26.28
2023-04-14T19:22:48.876Z,26.02
2023-04-14T19:25:18.504Z,26.04
2023-04-14T19:27:52.887Z,26.41
2023-04-14T19:30:26.085Z,26.61
2023-04-14T19:32:55.419Z,26.27
2023-04-14T19:35:27.441Z,26.42
2023-04-14T19:38:01.797Z,26.52
2023-04-14T19:40:31.539Z,26.62
2023-04-14T19:43:08.734Z,26.55
2023-04-14T19:45:51.035Z,26.84
2023-04-14T19:48:33.508Z,27.04
2023-04-14T19:51:06.009Z,27.04
2023-04-14T19:53:40.955Z,26.67
2023-04-14T19:56:10.160Z,26.85
2023-04-14T19:58:44.615Z,26.92
2023-04-14T20:01:13.874Z,27.12
2023-04-14T20:04:05.571Z,26.84
2023-04-14T20:06:41.240Z,26.90
2023-04-14T20:09:10.498Z,27.01
2023-04-14T20:11:45.382Z,26.89
2023-04-14T20:14:20.206Z,27.20
2023-04-14T20:16:49.814Z,27.63
2023-04-14T20:19:18.999Z,27.34
2023-04-14T20:22:13.572Z,27.65
2023-04-14T20:24:42.853Z,27.44
2023-04-14T20:27:18.112Z,27.65
2023-04-14T20:29:47.987Z,27.49
2023-04-14T20:32:17.578Z,27.64
2023-04-14T20:34:47.295Z,27.95
2023-04-14T20:37:22.939Z,27.74
2023-04-14T20:39:57.936Z,28.19
2023-04-14T20:42:27.998Z,27.67
2023-04-14T20:44:57.168Z,28.15
2023-04-14T20:47:26.615Z,28.43
2023-04-14T20:49:56.214Z,27.94
2023-04-14T20:55:03.321Z,28.44
2023-04-14T20:57:33.142Z,28.40
2023-04-14T21:00:04.832Z,28.15
2023-04-14T21:02:39.103Z,28.25
2023-04-14T21:05:09.698Z,27.72
2023-04-14T21:07:41.879Z,28.37
2023-04-14T21:10:12.738Z,28.57
2023-04-14T21:15:30.410Z,28.24
2023-04-14T21:18:12.703Z,28.30
2023-04-14T21:20:43.078Z,28.63
2023-04-14T21:23:16.487Z,28.47
2023-04-14T21:25:46.521Z,28.49
2023-04-14T21:28:16.031Z,28.46
2023-04-14T21:30:45.487Z,28.46
2023-04-14T21:33:14.788Z,28.49
2023-04-14T21:35:44.363Z,28.73
2023-04-14T21:38:25.750Z,28.81
2023-04-14T21:40:55.418Z,28.75
2023-04-14T21:43:24.529Z,29.27
2023-04-14T21:45:53.956Z,29.25
2023-04-14T21:48:23.584Z,28.91
2023-04-14T21:50:52.810Z,29.79
2023-04-14T21:53:29.092Z,28.85
2023-04-14T21:56:09.343Z,29.45
2023-04-14T22:01:15.448Z,29.62
2023-04-14T22:03:45.680Z,30.04
2023-04-14T22:06:20.461Z,29.25
2023-04-14T22:08:51.729Z,29.58
2023-04-14T22:11:21.774Z,30.31
2023-04-14T22:13:55.977Z,29.84
2023-04-14T22:16:30.631Z,30.16
2023-04-14T22:19:00.323Z,30.49
2023-04-14T22:21:30.153Z,30.42
2023-04-14T22:24:06.992Z,30.40
2023-04-14T22:26:36.970Z,30.53
2023-04-14T22:29:06.673Z,30.31
2023-04-14T22:31:36.576Z,30.05
2023-04-14T22:34:06.251Z,29.97
2023-04-14T22:36:35.565Z,30.10
2023-04-14T22:39:07.183Z,30.42
2023-04-14T22:41:36.801Z,30.99
2023-04-14T22:44:06.461Z,30.71
2023-04-14T22:46:35.971Z,30.76
2023-04-14T22:49:05.550Z,30.91
2023-04-14T22:51:34.928Z,30.92
2023-04-14T22:54:04.242Z,30.76
2023-04-14T22:56:36.053Z,31.23
2023-04-14T22:59:10.430Z,30.71
2023-04-14T23:01:39.733Z,31.15
2023-04-14T23:04:09.106Z,31.31
2023-04-14T23:06:38.784Z,31.46
2023-04-14T23:09:08.225Z,31.08
2023-04-14T23:11:44.464Z,31.11
2023-04-14T23:14:20.570Z,31.21
2023-04-14T23:16:50.233Z,31.10
2023-04-14T23:19:19.403Z,31.11
2023-04-14T23:21:50.577Z,31.39
2023-04-14T23:24:25.414Z,31.59
2023-04-14T23:29:32.338Z,31.10
2023-04-14T23:32:01.546Z,31.64
2023-04-14T23:34:36.150Z,31.61
2023-04-14T23:37:06.089Z,32.19
2023-04-14T23:39:35.442Z,31.57
2023-04-14T23:42:06.951Z,31.62
2023-04-14T23:44:36.847Z,31.44
2023-04-14T23:49:42.564Z,31.31
2023-04-14T23:52:16.834Z,31.09
2023-04-14T23:54:46.187Z,31.36
2023-04-14T23:57:17.642Z,31.66
